createdAt,value
2018-12-17T00:00:36.778Z,21.00
2018-12-17T00:03:05.296Z,21.52
2018-12-17T00:05:33.960Z,23.10
2018-12-17T00:08:02.284Z,21.48
2018-12-17T00:10:30.715Z,27.35
2018-12-17T00:12:59.181Z,25.95
2018-12-17T00:15:27.479Z,20.82
2018-12-17T00:17:55.782Z,21.33
2018-12-17T00:20:24.090Z,22.37
2018-12-17T00:22:52.406Z,22.37
2018-12-17T00:25:20.700Z,23.15
2018-12-17T00:27:49.492Z,23.75
2018-12-17T00:30:17.785Z,20.25
2018-12-17T00:32:46.113Z,19.77
2018-12-17T00:35:14.416Z,22.00
2018-12-17T00:37:42.723Z,23.18
2018-12-17T00:40:11.378Z,19.52
2018-12-17T00:42:39.737Z,22.35
2018-12-17T00:45:08.298Z,23.15
2018-12-17T00:47:36.914Z,22.87
2018-12-17T00:50:05.865Z,20.35
2018-12-17T00:52:34.279Z,19.02
2018-12-17T00:55:02.597Z,22.05
2018-12-17T00:57:31.538Z,19.82
2018-12-17T01:00:00.804Z,22.17
2018-12-17T01:02:29.094Z,19.73
2018-12-17T01:04:57.419Z,17.40
2018-12-17T01:07:27.676Z,20.05
2018-12-17T01:09:56.125Z,16.75
2018-12-17T01:12:24.432Z,20.12
2018-12-17T01:14:52.724Z,20.43
2018-12-17T01:17:21.130Z,24.82
2018-12-17T01:19:49.432Z,22.17
2018-12-17T01:22:18.034Z,21.80
2018-12-17T01:24:46.326Z,25.08
2018-12-17T01:27:14.662Z,24.52
2018-12-17T01:29:43.148Z,23.50
2018-12-17T01:32:11.534Z,23.85
2018-12-17T01:34:39.867Z,26.85
2018-12-17T01:37:08.173Z,23.67
2018-12-17T01:39:36.485Z,23.55
2018-12-17T01:42:04.899Z,22.25
2018-12-17T01:44:33.186Z,21.50
2018-12-17T01:47:01.528Z,20.92
2018-12-17T01:49:29.813Z,21.25
2018-12-17T01:51:58.462Z,20.97
2018-12-17T01:54:27.184Z,20.05
2018-12-17T01:56:55.461Z,16.82
2018-12-17T01:59:23.786Z,24.32
2018-12-17T02:01:52.183Z,18.70
2018-12-17T02:04:21.021Z,21.23
2018-12-17T02:06:50.523Z,21.10
2018-12-17T02:09:19.018Z,21.48
2018-12-17T02:11:47.331Z,22.15
2018-12-17T02:14:15.813Z,22.85
2018-12-17T02:16:44.465Z,19.50
2018-12-17T02:19:13.473Z,18.95
2018-12-17T02:21:41.778Z,19.75
2018-12-17T02:24:10.278Z,22.45
2018-12-17T02:26:38.841Z,22.50
2018-12-17T02:29:07.557Z,23.32
2018-12-17T02:31:36.492Z,21.48
2018-12-17T02:34:04.865Z,19.25
2018-12-17T02:36:34.123Z,21.97
2018-12-17T02:39:02.653Z,25.65
2018-12-17T02:41:30.928Z,23.87
2018-12-17T02:43:59.616Z,24.00
2018-12-17T02:46:27.901Z,21.80
2018-12-17T02:48:56.217Z,23.85
2018-12-17T02:51:24.504Z,21.40
2018-12-17T02:53:52.796Z,23.40
2018-12-17T02:56:21.085Z,23.87
2018-12-17T02:58:49.429Z,25.15
2018-12-17T03:01:17.722Z,22.67
2018-12-17T03:03:46.077Z,20.68
2018-12-17T03:06:14.360Z,20.72
2018-12-17T03:08:42.786Z,22.80
2018-12-17T03:11:11.082Z,22.13
2018-12-17T03:13:39.401Z,23.12
2018-12-17T03:16:07.723Z,20.55
2018-12-17T03:18:36.032Z,19.02
2018-12-17T03:21:04.324Z,21.20
2018-12-17T03:23:32.628Z,21.75
2018-12-17T03:26:00.935Z,17.82
2018-12-17T03:28:29.307Z,20.08
2018-12-17T03:30:57.639Z,23.52
2018-12-17T03:33:25.930Z,20.08
2018-12-17T03:35:54.569Z,17.73
2018-12-17T03:38:22.958Z,19.90
2018-12-17T03:40:51.438Z,22.37
2018-12-17T03:43:19.890Z,21.75
2018-12-17T03:45:48.212Z,18.98
2018-12-17T03:48:16.501Z,21.15
2018-12-17T03:50:44.807Z,18.82
2018-12-17T03:53:13.128Z,18.00
2018-12-17T03:55:41.430Z,19.48
2018-12-17T03:58:09.718Z,22.05
2018-12-17T04:00:38.072Z,21.10
2018-12-17T04:03:06.436Z,19.67
2018-12-17T04:05:35.042Z,19.75
2018-12-17T04:08:04.116Z,17.57
2018-12-17T04:10:32.420Z,19.32
2018-12-17T04:13:01.026Z,20.95
2018-12-17T04:15:29.450Z,20.30
2018-12-17T04:17:57.770Z,20.57
2018-12-17T04:20:26.475Z,19.52
2018-12-17T04:22:55.133Z,19.52
2018-12-17T04:25:23.436Z,18.65
2018-12-17T04:27:51.776Z,19.57
2018-12-17T04:30:20.352Z,19.32
2018-12-17T04:32:48.703Z,20.08
2018-12-17T04:35:17.337Z,20.82
2018-12-17T04:37:45.673Z,19.77
2018-12-17T04:40:13.988Z,20.12
2018-12-17T04:42:42.327Z,18.27
2018-12-17T04:45:10.628Z,20.10
2018-12-17T04:47:38.945Z,21.45
2018-12-17T04:50:07.380Z,19.95
2018-12-17T04:52:36.565Z,16.70
2018-12-17T04:55:05.387Z,17.02
2018-12-17T04:57:34.872Z,18.15
2018-12-17T05:00:04.042Z,18.73
2018-12-17T05:02:32.329Z,18.80
2018-12-17T05:05:00.930Z,23.18
2018-12-17T05:07:29.246Z,18.90
2018-12-17T05:09:57.605Z,16.85
2018-12-17T05:12:26.655Z,19.02
2018-12-17T05:14:54.922Z,18.15
2018-12-17T05:17:23.298Z,18.32
2018-12-17T05:19:51.619Z,17.90
2018-12-17T05:22:19.994Z,21.65
2018-12-17T05:24:48.623Z,20.82
2018-12-17T05:27:17.224Z,18.55
2018-12-17T05:29:45.539Z,18.20
2018-12-17T05:32:13.857Z,18.75
2018-12-17T05:34:42.140Z,17.77
2018-12-17T05:37:10.627Z,18.27
2018-12-17T05:39:38.967Z,17.00
2018-12-17T05:42:07.537Z,18.12
2018-12-17T05:44:36.050Z,20.53
2018-12-17T05:47:05.060Z,18.30
2018-12-17T05:49:33.617Z,19.62
2018-12-17T05:52:01.986Z,20.50
2018-12-17T05:54:30.269Z,18.67
2018-12-17T05:56:58.645Z,21.20
2018-12-17T05:59:28.672Z,21.65
2018-12-17T06:01:57.232Z,18.67
2018-12-17T06:04:25.555Z,20.35
2018-12-17T06:06:53.866Z,23.62
2018-12-17T06:09:22.587Z,22.30
2018-12-17T06:11:51.040Z,19.27
2018-12-17T06:14:19.602Z,23.83
2018-12-17T06:16:48.099Z,20.62
2018-12-17T06:19:16.400Z,22.37
2018-12-17T06:21:44.715Z,20.30
2018-12-17T06:24:13.346Z,21.30
2018-12-17T06:26:41.652Z,21.97
2018-12-17T06:29:09.943Z,21.77
2018-12-17T06:31:38.345Z,20.90
2018-12-17T06:34:06.669Z,20.03
2018-12-17T06:36:34.993Z,18.85
2018-12-17T06:39:06.348Z,19.77
2018-12-17T06:41:34.649Z,21.80
2018-12-17T06:44:02.946Z,20.00
2018-12-17T06:46:31.333Z,23.00
2018-12-17T06:49:00.003Z,21.03
2018-12-17T06:51:28.677Z,20.13
2018-12-17T06:53:56.966Z,22.17
2018-12-17T06:56:25.276Z,21.07
2018-12-17T06:58:53.585Z,21.23
2018-12-17T07:01:21.867Z,25.50
2018-12-17T07:03:50.169Z,23.87
2018-12-17T07:06:18.598Z,27.57
2018-12-17T07:08:47.239Z,24.27
2018-12-17T07:11:15.542Z,23.43
2018-12-17T07:13:43.860Z,25.17
2018-12-17T07:16:12.458Z,25.60
2018-12-17T07:18:41.150Z,24.37
2018-12-17T07:21:09.385Z,34.37
2018-12-17T07:23:37.689Z,27.47
2018-12-17T07:26:06.461Z,26.50
2018-12-17T07:28:34.782Z,27.77
2018-12-17T07:31:03.076Z,25.97
2018-12-17T07:33:31.661Z,27.33
2018-12-17T07:36:00.087Z,26.20
2018-12-17T07:38:28.645Z,24.77
2018-12-17T07:40:57.225Z,32.73
2018-12-17T07:43:26.380Z,23.47
2018-12-17T07:45:54.899Z,23.70
2018-12-17T07:48:23.168Z,28.80
2018-12-17T07:50:51.833Z,35.33
2018-12-17T07:53:20.145Z,27.53
2018-12-17T07:55:48.437Z,24.23
2018-12-17T07:58:16.744Z,28.23
2018-12-17T08:00:45.118Z,22.20
2018-12-17T08:03:13.420Z,21.03
2018-12-17T08:05:41.738Z,26.07
2018-12-17T08:08:10.106Z,21.47
2018-12-17T08:10:38.420Z,26.23
2018-12-17T08:13:07.085Z,21.03
2018-12-17T08:15:35.438Z,24.50
2018-12-17T08:18:14.284Z,18.77
2018-12-17T08:20:42.611Z,21.90
2018-12-17T08:23:10.914Z,23.00
2018-12-17T08:25:39.225Z,25.67
2018-12-17T08:28:07.614Z,27.87
2018-12-17T08:30:35.920Z,27.10
2018-12-17T08:33:04.597Z,19.17
2018-12-17T08:35:32.903Z,22.20
2018-12-17T08:38:01.508Z,25.03
2018-12-17T08:40:29.894Z,24.63
2018-12-17T08:42:58.172Z,17.67
2018-12-17T08:45:26.585Z,14.40
2018-12-17T08:47:55.065Z,15.17
2018-12-17T08:50:23.636Z,13.53
2018-12-17T08:52:51.921Z,11.53
2018-12-17T08:55:20.234Z,11.37
2018-12-17T08:57:48.534Z,10.57
2018-12-17T09:00:16.835Z,11.77
2018-12-17T09:02:45.125Z,10.53
2018-12-17T09:05:13.428Z,9.83
2018-12-17T09:07:41.865Z,10.50
2018-12-17T09:10:10.156Z,9.53
2018-12-17T09:12:38.468Z,7.97
2018-12-17T09:15:07.092Z,10.40
2018-12-17T09:17:35.397Z,9.33
2018-12-17T09:20:05.918Z,8.10
2018-12-17T09:22:34.640Z,10.03
2018-12-17T09:25:03.489Z,10.93
2018-12-17T09:27:31.793Z,8.27
2018-12-17T09:30:00.255Z,8.37
2018-12-17T09:32:28.556Z,7.23
2018-12-17T09:34:56.872Z,8.30
2018-12-17T09:37:25.472Z,7.10
2018-12-17T09:39:54.005Z,9.00
2018-12-17T09:42:22.304Z,6.70
2018-12-17T09:44:50.602Z,6.53
2018-12-17T09:47:18.888Z,6.10
2018-12-17T09:49:47.359Z,6.20
2018-12-17T09:52:15.620Z,6.37
2018-12-17T09:54:43.922Z,5.37
2018-12-17T09:57:12.185Z,6.07
2018-12-17T09:59:40.781Z,7.47
2018-12-17T10:02:09.052Z,5.90
2018-12-17T10:04:37.360Z,6.47
2018-12-17T10:07:05.653Z,7.30
2018-12-17T10:09:33.965Z,5.00
2018-12-17T10:12:02.248Z,5.10
2018-12-17T10:14:30.545Z,5.83
2018-12-17T10:16:58.888Z,6.23
2018-12-17T10:19:27.183Z,6.07
2018-12-17T10:21:55.450Z,5.70
2018-12-17T10:24:23.848Z,5.53
2018-12-17T10:26:52.144Z,5.90
2018-12-17T10:29:20.406Z,5.87
2018-12-17T10:31:48.702Z,5.57
2018-12-17T10:34:16.976Z,6.17
2018-12-17T10:36:45.273Z,6.53
2018-12-17T10:39:15.065Z,6.87
2018-12-17T10:41:43.641Z,5.97
2018-12-17T10:44:11.912Z,4.60
2018-12-17T10:46:40.281Z,6.43
2018-12-17T10:49:08.634Z,6.43
2018-12-17T10:51:36.927Z,5.47
2018-12-17T10:54:05.192Z,8.23
2018-12-17T10:56:33.488Z,5.77
2018-12-17T10:59:02.082Z,6.37
2018-12-17T11:01:34.252Z,6.20
2018-12-17T11:04:04.493Z,6.17
2018-12-17T11:06:32.863Z,7.43
2018-12-17T11:09:02.350Z,6.17
2018-12-17T11:11:30.949Z,6.73
2018-12-17T11:13:59.256Z,7.70
2018-12-17T11:16:27.693Z,6.90
2018-12-17T11:18:55.974Z,6.17
2018-12-17T11:21:24.246Z,8.80
2018-12-17T11:23:52.533Z,6.47
2018-12-17T11:26:21.446Z,7.33
2018-12-17T11:28:49.752Z,6.13
2018-12-17T11:31:18.029Z,5.87
2018-12-17T11:33:46.325Z,6.40
2018-12-17T11:36:14.662Z,7.73
2018-12-17T11:38:44.026Z,6.30
2018-12-17T11:41:12.348Z,4.43
2018-12-17T11:43:43.783Z,6.20
2018-12-17T11:46:10.886Z,8.50
2018-12-17T11:48:39.866Z,6.37
2018-12-17T11:51:08.165Z,5.10
2018-12-17T11:53:36.484Z,6.23
2018-12-17T11:56:05.272Z,8.63
2018-12-17T11:58:33.562Z,4.83
2018-12-17T12:01:02.908Z,5.97
2018-12-17T12:03:32.255Z,4.87
2018-12-17T12:06:00.531Z,6.50
2018-12-17T12:08:28.820Z,7.67
2018-12-17T12:10:57.094Z,6.80
2018-12-17T12:13:25.471Z,7.27
2018-12-17T12:15:53.752Z,7.00
2018-12-17T12:18:22.120Z,8.10
2018-12-17T12:20:50.506Z,5.67
2018-12-17T12:23:18.812Z,6.60
2018-12-17T12:25:47.085Z,4.93
2018-12-17T12:28:15.365Z,6.33
2018-12-17T12:30:43.712Z,6.13
2018-12-17T12:33:12.009Z,4.30
2018-12-17T12:35:40.322Z,5.50
2018-12-17T12:38:08.871Z,2.90
2018-12-17T12:40:37.369Z,3.67
2018-12-17T12:43:05.628Z,3.77
2018-12-17T12:45:33.910Z,4.67
2018-12-17T12:48:02.210Z,3.27
2018-12-17T12:50:30.492Z,6.40
2018-12-17T12:52:58.784Z,4.97
2018-12-17T12:55:27.214Z,5.77
2018-12-17T12:57:55.496Z,2.97
2018-12-17T13:00:23.772Z,3.87
2018-12-17T13:02:52.072Z,2.13
2018-12-17T13:05:20.350Z,7.70
2018-12-17T13:07:48.642Z,3.87
2018-12-17T13:10:16.897Z,3.13
2018-12-17T13:12:45.188Z,3.50
2018-12-17T13:15:13.580Z,5.17
2018-12-17T13:17:41.868Z,2.90
2018-12-17T13:20:10.326Z,6.17
2018-12-17T13:22:38.638Z,3.83
2018-12-17T13:25:09.632Z,4.07
2018-12-17T13:27:37.905Z,2.90
2018-12-17T13:30:08.239Z,4.70
2018-12-17T13:32:36.529Z,3.93
2018-12-17T13:35:05.568Z,4.20
2018-12-17T13:37:33.842Z,5.47
2018-12-17T13:40:02.127Z,3.03
2018-12-17T13:42:30.488Z,3.07
2018-12-17T13:44:58.752Z,4.03
2018-12-17T13:47:27.052Z,8.73
2018-12-17T13:49:57.320Z,6.60
2018-12-17T13:52:31.102Z,3.27
2018-12-17T13:54:59.366Z,2.80
2018-12-17T13:57:27.709Z,2.77
2018-12-17T13:59:55.990Z,5.37
2018-12-17T14:02:24.278Z,3.07
2018-12-17T14:04:52.563Z,4.57
2018-12-17T14:07:20.932Z,3.63
2018-12-17T14:09:54.916Z,2.93
2018-12-17T14:12:23.577Z,4.83
2018-12-17T14:14:51.863Z,3.27
2018-12-17T14:17:25.618Z,3.63
2018-12-17T14:19:59.482Z,2.77
2018-12-17T14:22:27.752Z,5.27
2018-12-17T14:24:56.056Z,3.10
2018-12-17T14:27:24.333Z,5.03
2018-12-17T14:29:52.861Z,2.90
2018-12-17T14:32:21.163Z,4.27
2018-12-17T14:34:49.452Z,4.20
2018-12-17T14:37:17.756Z,6.43
2018-12-17T14:39:46.030Z,4.10
2018-12-17T14:42:14.333Z,4.33
2018-12-17T14:44:42.606Z,4.43
2018-12-17T14:47:11.014Z,5.83
2018-12-17T14:49:39.273Z,6.07
2018-12-17T14:52:07.636Z,3.33
2018-12-17T14:54:35.903Z,3.20
2018-12-17T14:57:04.269Z,4.43
2018-12-17T14:59:32.537Z,3.50
2018-12-17T15:02:00.836Z,4.73
2018-12-17T15:04:29.133Z,4.70
2018-12-17T15:06:57.422Z,6.07
2018-12-17T15:09:25.873Z,4.83
2018-12-17T15:11:54.172Z,5.53
2018-12-17T15:14:22.612Z,3.50
2018-12-17T15:16:50.916Z,3.37
2018-12-17T15:19:19.181Z,7.40
2018-12-17T15:21:47.505Z,5.80
2018-12-17T15:24:16.458Z,5.13
2018-12-17T15:26:44.880Z,4.90
2018-12-17T15:29:13.169Z,3.50
2018-12-17T15:31:43.243Z,6.10
2018-12-17T15:34:11.761Z,5.03
2018-12-17T15:36:40.728Z,4.60
2018-12-17T15:39:09.298Z,3.70
2018-12-17T15:41:37.604Z,7.70
2018-12-17T15:44:05.872Z,3.57
2018-12-17T15:46:34.391Z,4.27
2018-12-17T15:49:02.752Z,3.53
2018-12-17T15:51:31.024Z,6.53
2018-12-17T15:53:59.317Z,4.33
2018-12-17T15:56:27.580Z,4.33
2018-12-17T15:58:55.885Z,3.57
2018-12-17T16:01:24.170Z,4.37
2018-12-17T16:03:52.525Z,3.17
2018-12-17T16:06:20.912Z,5.00
2018-12-17T16:08:49.285Z,7.87
2018-12-17T16:11:17.581Z,7.80
2018-12-17T16:13:45.864Z,5.73
2018-12-17T16:16:14.133Z,5.60
2018-12-17T16:18:42.474Z,11.10
2018-12-17T16:21:10.780Z,9.63
2018-12-17T16:23:39.078Z,9.43
2018-12-17T16:26:07.379Z,8.33
2018-12-17T16:28:35.672Z,8.67
2018-12-17T16:31:04.015Z,5.67
2018-12-17T16:33:32.328Z,4.70
2018-12-17T16:36:00.624Z,5.33
2018-12-17T16:38:29.117Z,6.87
2018-12-17T16:40:57.406Z,5.80
2018-12-17T16:43:25.684Z,10.53
2018-12-17T16:45:54.011Z,21.23
2018-12-17T16:48:23.523Z,10.43
2018-12-17T16:50:51.835Z,9.87
2018-12-17T16:53:20.209Z,18.80
2018-12-17T16:55:48.538Z,5.83
2018-12-17T16:58:16.804Z,17.50
2018-12-17T17:00:45.053Z,6.10
2018-12-17T17:03:13.326Z,4.53
2018-12-17T17:05:41.605Z,5.33
2018-12-17T17:08:09.898Z,9.90
2018-12-17T17:10:38.426Z,12.80
2018-12-17T17:13:06.667Z,4.10
2018-12-17T17:15:35.111Z,5.47
2018-12-17T17:18:03.406Z,5.17
2018-12-17T17:20:31.677Z,6.97
2018-12-17T17:22:59.985Z,6.77
2018-12-17T17:25:28.258Z,5.83
2018-12-17T17:27:56.581Z,8.17
2018-12-17T17:30:24.874Z,4.50
2018-12-17T17:32:53.186Z,6.33
2018-12-17T17:35:21.489Z,6.60
2018-12-17T17:37:49.845Z,6.17
2018-12-17T17:40:18.141Z,8.10
2018-12-17T17:42:46.446Z,5.97
2018-12-17T17:45:14.731Z,8.73
2018-12-17T17:47:43.084Z,8.67
2018-12-17T17:50:11.362Z,5.63
2018-12-17T17:52:39.673Z,6.10
2018-12-17T17:55:07.985Z,8.60
2018-12-17T17:57:36.574Z,6.87
2018-12-17T18:00:08.170Z,6.43
2018-12-17T18:02:36.518Z,5.43
2018-12-17T18:05:05.770Z,6.27
2018-12-17T18:07:34.041Z,8.27
2018-12-17T18:10:04.308Z,5.70
2018-12-17T18:12:32.584Z,6.73
2018-12-17T18:15:00.896Z,5.63
2018-12-17T18:17:29.200Z,7.23
2018-12-17T18:19:57.503Z,7.87
2018-12-17T18:22:25.797Z,5.70
2018-12-17T18:24:54.111Z,5.47
2018-12-17T18:27:22.448Z,6.80
2018-12-17T18:29:50.749Z,17.30
2018-12-17T18:32:25.749Z,8.27
2018-12-17T18:34:49.353Z,7.27
2018-12-17T18:37:17.665Z,9.13
2018-12-17T18:39:45.940Z,5.23
2018-12-17T18:42:14.237Z,5.47
2018-12-17T18:44:42.572Z,9.07
2018-12-17T18:47:10.867Z,8.53
2018-12-17T18:49:39.166Z,4.30
2018-12-17T18:52:07.613Z,7.43
2018-12-17T18:54:35.886Z,7.80
2018-12-17T18:57:04.250Z,7.90
2018-12-17T18:59:32.542Z,4.60
2018-12-17T19:02:00.865Z,5.67
2018-12-17T19:04:29.137Z,7.67
2018-12-17T19:06:57.441Z,8.93
2018-12-17T19:09:25.788Z,7.73
2018-12-17T19:11:54.109Z,6.13
2018-12-17T19:14:22.439Z,5.57
2018-12-17T19:16:50.757Z,6.70
2018-12-17T19:19:19.036Z,6.10
2018-12-17T19:21:47.400Z,6.50
2018-12-17T19:24:15.934Z,7.70
2018-12-17T19:26:44.406Z,7.70
2018-12-17T19:29:12.691Z,5.70
2018-12-17T19:31:40.991Z,8.07
2018-12-17T19:34:09.303Z,5.93
2018-12-17T19:36:37.595Z,9.23
2018-12-17T19:39:07.014Z,8.33
2018-12-17T19:41:35.283Z,6.80
2018-12-17T19:44:03.591Z,7.40
2018-12-17T19:46:31.861Z,5.30
2018-12-17T19:49:00.152Z,7.17
2018-12-17T19:51:28.513Z,8.60
2018-12-17T19:53:57.241Z,8.60
2018-12-17T19:56:26.074Z,11.63
2018-12-17T19:58:54.348Z,6.53
2018-12-17T20:01:22.710Z,7.23
2018-12-17T20:03:50.942Z,6.00
2018-12-17T20:06:19.233Z,8.10
2018-12-17T20:08:47.656Z,4.97
2018-12-17T20:11:15.999Z,5.73
2018-12-17T20:13:44.269Z,5.87
2018-12-17T20:16:12.560Z,4.53
2018-12-17T20:18:40.894Z,6.30
2018-12-17T20:21:09.247Z,5.63
2018-12-17T20:23:37.525Z,7.10
2018-12-17T20:26:05.823Z,6.97
2018-12-17T20:28:34.114Z,8.80
2018-12-17T20:31:02.412Z,7.20
2018-12-17T20:33:30.716Z,7.17
2018-12-17T20:35:59.004Z,8.57
2018-12-17T20:38:27.313Z,7.27
2018-12-17T20:40:55.976Z,8.30
2018-12-17T20:43:25.715Z,6.83
2018-12-17T20:45:54.014Z,7.40
2018-12-17T20:48:22.301Z,7.83
2018-12-17T20:50:51.060Z,8.10
2018-12-17T20:53:19.314Z,6.70
2018-12-17T20:55:47.584Z,6.07
2018-12-17T20:58:15.893Z,10.17
2018-12-17T21:00:44.175Z,7.30
2018-12-17T21:03:12.476Z,6.07
2018-12-17T21:05:41.831Z,8.20
2018-12-17T21:08:10.562Z,9.13
2018-12-17T21:10:38.848Z,9.37
2018-12-17T21:13:07.120Z,6.50
2018-12-17T21:15:35.426Z,7.60
2018-12-17T21:18:03.817Z,7.03
2018-12-17T21:20:32.319Z,8.27
2018-12-17T21:23:00.605Z,9.43
2018-12-17T21:25:28.897Z,8.73
2018-12-17T21:27:57.218Z,7.80
2018-12-17T21:30:25.859Z,9.33
2018-12-17T21:32:54.366Z,7.47
2018-12-17T21:35:22.642Z,10.20
2018-12-17T21:37:50.932Z,7.43
2018-12-17T21:40:19.200Z,8.77
2018-12-17T21:42:47.504Z,8.60
2018-12-17T21:45:15.823Z,7.00
2018-12-17T21:47:44.123Z,8.30
2018-12-17T22:05:25.900Z,10.00
2018-12-17T22:07:54.185Z,12.97
2018-12-17T22:10:25.445Z,12.97
2018-12-17T22:12:53.735Z,24.03
2018-12-17T22:15:22.025Z,13.63
2018-12-17T22:17:50.349Z,9.53
2018-12-17T22:20:18.836Z,11.57
2018-12-17T22:22:47.109Z,9.93
2018-12-17T22:25:15.412Z,9.63
2018-12-17T22:27:43.678Z,8.50
2018-12-17T22:30:12.054Z,10.90
2018-12-17T22:32:40.363Z,8.00
2018-12-17T22:35:08.715Z,10.87
2018-12-17T22:37:37.015Z,11.53
2018-12-17T22:40:06.468Z,9.03
2018-12-17T22:42:35.320Z,11.07
2018-12-17T22:45:04.636Z,11.00
2018-12-17T22:47:32.943Z,9.10
2018-12-17T22:50:01.531Z,9.13
2018-12-17T22:52:29.823Z,11.10
2018-12-17T22:54:58.093Z,10.00
2018-12-17T22:57:26.415Z,10.40
2018-12-17T22:59:54.805Z,9.77
2018-12-17T23:02:23.167Z,8.07
2018-12-17T23:04:51.473Z,9.23
2018-12-17T23:07:19.793Z,8.43
2018-12-17T23:10:00.007Z,10.63
2018-12-17T23:12:40.071Z,9.97
2018-12-17T23:15:20.110Z,14.27
2018-12-17T23:17:47.957Z,11.03
2018-12-17T23:20:17.715Z,11.63
2018-12-17T23:22:46.518Z,10.93
2018-12-17T23:25:14.784Z,11.00
2018-12-17T23:27:47.457Z,12.63
2018-12-17T23:30:16.564Z,10.87
2018-12-17T23:32:44.884Z,13.20
2018-12-17T23:35:13.521Z,10.80
2018-12-17T23:37:41.890Z,9.97
2018-12-17T23:40:10.370Z,11.87
2018-12-17T23:42:38.854Z,12.90
2018-12-17T23:45:07.293Z,18.57
2018-12-17T23:47:35.572Z,9.87
2018-12-17T23:50:05.525Z,12.27
2018-12-17T23:52:33.856Z,10.70
2018-12-17T23:55:02.340Z,10.60
2018-12-17T23:57:30.620Z,12.37
2018-12-17T23:59:58.974Z,11.67
